sensor_id;sensor_type;location;lat;lon;timestamp;P1;durP1;ratioP1;P2;durP2;ratioP2
4806;SDS011;2417;52.482;13.432;2023-06-22T00:00:52;33.17;;;14.70;;
4806;SDS011;2417;52.482;13.432;2023-06-22T00:03:21;41.70;;;15.90;;
4806;SDS011;2417;52.482;13.432;2023-06-22T00:05:51;34.33;;;14.27;;
4806;SDS011;2417;52.482;13.432;2023-06-22T00:08:19;32.53;;;13.53;;
4806;SDS011;2417;52.482;13.432;2023-06-22T00:10:47;31.83;;;13.50;;
4806;SDS011;2417;52.482;13.432;2023-06-22T00:13:15;34.03;;;14.67;;
4806;SDS011;2417;52.482;13.432;2023-06-22T00:15:44;34.80;;;14.60;;
4806;SDS011;2417;52.482;13.432;2023-06-22T00:18:12;36.50;;;13.90;;
4806;SDS011;2417;52.482;13.432;2023-06-22T00:20:41;33.57;;;14.60;;
4806;SDS011;2417;52.482;13.432;2023-06-22T00:23:11;33.73;;;14.40;;
4806;SDS011;2417;52.482;13.432;2023-06-22T00:25:40;34.87;;;14.53;;
4806;SDS011;2417;52.482;13.432;2023-06-22T00:28:08;33.50;;;14.70;;
4806;SDS011;2417;52.482;13.432;2023-06-22T00:30:36;31.50;;;13.43;;
4806;SDS011;2417;52.482;13.432;2023-06-22T00:33:04;34.50;;;14.80;;
4806;SDS011;2417;52.482;13.432;2023-06-22T00:35:34;39.57;;;14.50;;
4806;SDS011;2417;52.482;13.432;2023-06-22T00:38:02;37.30;;;15.10;;
4806;SDS011;2417;52.482;13.432;2023-06-22T00:40:33;33.07;;;15.10;;
4806;SDS011;2417;52.482;13.432;2023-06-22T00:43:01;32.10;;;14.00;;
4806;SDS011;2417;52.482;13.432;2023-06-22T00:45:29;34.57;;;14.47;;
4806;SDS011;2417;52.482;13.432;2023-06-22T00:47:57;32.60;;;14.27;;
4806;SDS011;2417;52.482;13.432;2023-06-22T00:50:26;34.60;;;14.03;;
4806;SDS011;2417;52.482;13.432;2023-06-22T00:52:57;34.77;;;14.10;;
4806;SDS011;2417;52.482;13.432;2023-06-22T00:55:26;34.47;;;14.60;;
4806;SDS011;2417;52.482;13.432;2023-06-22T00:57:56;36.63;;;14.43;;
4806;SDS011;2417;52.482;13.432;2023-06-22T01:00:24;33.60;;;14.60;;
4806;SDS011;2417;52.482;13.432;2023-06-22T01:02:52;37.10;;;14.73;;
4806;SDS011;2417;52.482;13.432;2023-06-22T01:05:21;34.00;;;14.70;;
4806;SDS011;2417;52.482;13.432;2023-06-22T01:07:53;33.00;;;14.13;;
4806;SDS011;2417;52.482;13.432;2023-06-22T01:10:25;34.70;;;14.40;;
4806;SDS011;2417;52.482;13.432;2023-06-22T01:12:58;35.10;;;14.97;;
4806;SDS011;2417;52.482;13.432;2023-06-22T01:15:28;32.57;;;13.27;;
4806;SDS011;2417;52.482;13.432;2023-06-22T01:17:58;35.77;;;15.23;;
4806;SDS011;2417;52.482;13.432;2023-06-22T01:20:27;34.00;;;13.63;;
4806;SDS011;2417;52.482;13.432;2023-06-22T01:23:01;34.60;;;14.53;;
4806;SDS011;2417;52.482;13.432;2023-06-22T01:25:33;34.40;;;14.80;;
4806;SDS011;2417;52.482;13.432;2023-06-22T01:28:12;35.23;;;15.37;;
4806;SDS011;2417;52.482;13.432;2023-06-22T01:30:46;33.70;;;15.33;;
4806;SDS011;2417;52.482;13.432;2023-06-22T01:33:16;36.70;;;15.10;;
4806;SDS011;2417;52.482;13.432;2023-06-22T01:35:44;34.03;;;15.17;;
4806;SDS011;2417;52.482;13.432;2023-06-22T01:38:12;35.07;;;15.60;;
4806;SDS011;2417;52.482;13.432;2023-06-22T01:40:41;39.83;;;15.07;;
4806;SDS011;2417;52.482;13.432;2023-06-22T01:43:09;35.77;;;15.67;;
4806;SDS011;2417;52.482;13.432;2023-06-22T01:45:37;37.57;;;16.40;;
4806;SDS011;2417;52.482;13.432;2023-06-22T01:48:06;36.47;;;16.60;;
4806;SDS011;2417;52.482;13.432;2023-06-22T01:50:34;34.23;;;15.90;;
4806;SDS011;2417;52.482;13.432;2023-06-22T01:53:02;37.77;;;16.20;;
4806;SDS011;2417;52.482;13.432;2023-06-22T01:55:32;37.90;;;16.63;;
4806;SDS011;2417;52.482;13.432;2023-06-22T01:58:00;38.13;;;17.00;;
4806;SDS011;2417;52.482;13.432;2023-06-22T02:00:28;36.40;;;17.80;;
4806;SDS011;2417;52.482;13.432;2023-06-22T02:02:59;39.83;;;18.60;;
4806;SDS011;2417;52.482;13.432;2023-06-22T02:05:31;38.33;;;18.10;;
4806;SDS011;2417;52.482;13.432;2023-06-22T02:08:21;37.90;;;17.20;;
4806;SDS011;2417;52.482;13.432;2023-06-22T02:10:50;37.63;;;17.90;;
4806;SDS011;2417;52.482;13.432;2023-06-22T02:13:19;40.50;;;18.80;;
4806;SDS011;2417;52.482;13.432;2023-06-22T02:15:47;38.20;;;17.97;;
4806;SDS011;2417;52.482;13.432;2023-06-22T02:18:16;40.90;;;18.53;;
4806;SDS011;2417;52.482;13.432;2023-06-22T02:20:45;37.30;;;17.57;;
4806;SDS011;2417;52.482;13.432;2023-06-22T02:23:13;44.20;;;19.83;;
4806;SDS011;2417;52.482;13.432;2023-06-22T02:25:41;39.37;;;18.70;;
4806;SDS011;2417;52.482;13.432;2023-06-22T02:28:11;42.07;;;18.50;;
4806;SDS011;2417;52.482;13.432;2023-06-22T02:30:39;46.23;;;20.63;;
4806;SDS011;2417;52.482;13.432;2023-06-22T02:33:07;42.83;;;20.30;;
4806;SDS011;2417;52.482;13.432;2023-06-22T02:35:35;40.93;;;20.13;;
4806;SDS011;2417;52.482;13.432;2023-06-22T02:38:04;39.87;;;18.90;;
4806;SDS011;2417;52.482;13.432;2023-06-22T02:40:35;40.97;;;19.90;;
4806;SDS011;2417;52.482;13.432;2023-06-22T02:43:04;40.80;;;19.90;;
4806;SDS011;2417;52.482;13.432;2023-06-22T02:45:32;42.90;;;19.00;;
4806;SDS011;2417;52.482;13.432;2023-06-22T02:48:00;41.50;;;19.90;;
4806;SDS011;2417;52.482;13.432;2023-06-22T02:50:28;39.97;;;18.83;;
4806;SDS011;2417;52.482;13.432;2023-06-22T02:55:38;41.60;;;19.43;;
4806;SDS011;2417;52.482;13.432;2023-06-22T02:58:07;42.87;;;18.70;;
4806;SDS011;2417;52.482;13.432;2023-06-22T03:00:37;40.63;;;18.27;;
4806;SDS011;2417;52.482;13.432;2023-06-22T03:03:06;41.00;;;18.23;;
4806;SDS011;2417;52.482;13.432;2023-06-22T03:05:34;38.73;;;18.90;;
4806;SDS011;2417;52.482;13.432;2023-06-22T03:08:03;42.00;;;18.10;;
4806;SDS011;2417;52.482;13.432;2023-06-22T03:10:33;38.93;;;18.80;;
4806;SDS011;2417;52.482;13.432;2023-06-22T03:13:02;40.37;;;17.93;;
4806;SDS011;2417;52.482;13.432;2023-06-22T03:15:30;38.97;;;16.87;;
4806;SDS011;2417;52.482;13.432;2023-06-22T03:17:58;38.27;;;18.10;;
4806;SDS011;2417;52.482;13.432;2023-06-22T03:20:26;40.87;;;17.87;;
4806;SDS011;2417;52.482;13.432;2023-06-22T03:23:00;39.63;;;17.63;;
4806;SDS011;2417;52.482;13.432;2023-06-22T03:25:28;37.87;;;17.53;;
4806;SDS011;2417;52.482;13.432;2023-06-22T03:27:56;42.50;;;18.60;;
4806;SDS011;2417;52.482;13.432;2023-06-22T03:30:27;36.67;;;17.40;;
4806;SDS011;2417;52.482;13.432;2023-06-22T03:32:55;36.83;;;17.53;;
4806;SDS011;2417;52.482;13.432;2023-06-22T03:35:25;38.80;;;16.83;;
4806;SDS011;2417;52.482;13.432;2023-06-22T03:37:54;37.50;;;17.30;;
4806;SDS011;2417;52.482;13.432;2023-06-22T03:40:22;39.43;;;16.40;;
4806;SDS011;2417;52.482;13.432;2023-06-22T03:42:50;37.00;;;16.23;;
4806;SDS011;2417;52.482;13.432;2023-06-22T03:45:18;37.63;;;15.20;;
4806;SDS011;2417;52.482;13.432;2023-06-22T03:47:47;34.40;;;14.60;;
4806;SDS011;2417;52.482;13.432;2023-06-22T03:50:15;33.50;;;14.40;;
4806;SDS011;2417;52.482;13.432;2023-06-22T03:52:43;37.33;;;14.20;;
4806;SDS011;2417;52.482;13.432;2023-06-22T03:55:11;35.73;;;13.87;;
4806;SDS011;2417;52.482;13.432;2023-06-22T03:57:39;34.87;;;14.47;;
4806;SDS011;2417;52.482;13.432;2023-06-22T04:00:09;34.13;;;14.43;;
4806;SDS011;2417;52.482;13.432;2023-06-22T04:02:40;35.10;;;13.80;;
4806;SDS011;2417;52.482;13.432;2023-06-22T04:05:10;32.00;;;13.93;;
4806;SDS011;2417;52.482;13.432;2023-06-22T04:07:38;30.97;;;12.40;;
4806;SDS011;2417;52.482;13.432;2023-06-22T04:10:06;35.70;;;13.53;;
4806;SDS011;2417;52.482;13.432;2023-06-22T04:12:38;35.40;;;13.90;;
4806;SDS011;2417;52.482;13.432;2023-06-22T04:15:06;30.60;;;13.27;;
4806;SDS011;2417;52.482;13.432;2023-06-22T04:17:35;41.43;;;14.23;;
4806;SDS011;2417;52.482;13.432;2023-06-22T04:20:04;37.50;;;14.20;;
4806;SDS011;2417;52.482;13.432;2023-06-22T04:22:33;32.80;;;13.87;;
4806;SDS011;2417;52.482;13.432;2023-06-22T04:25:02;33.30;;;13.90;;
4806;SDS011;2417;52.482;13.432;2023-06-22T04:27:30;32.93;;;14.33;;
4806;SDS011;2417;52.482;13.432;2023-06-22T04:29:57;30.07;;;12.90;;
4806;SDS011;2417;52.482;13.432;2023-06-22T04:32:27;31.67;;;13.03;;
4806;SDS011;2417;52.482;13.432;2023-06-22T04:34:55;38.83;;;13.83;;
4806;SDS011;2417;52.482;13.432;2023-06-22T04:37:22;38.83;;;13.43;;
4806;SDS011;2417;52.482;13.432;2023-06-22T04:39:52;31.93;;;13.37;;
4806;SDS011;2417;52.482;13.432;2023-06-22T04:42:20;31.93;;;12.50;;
4806;SDS011;2417;52.482;13.432;2023-06-22T04:44:48;35.13;;;13.00;;
4806;SDS011;2417;52.482;13.432;2023-06-22T04:47:16;30.77;;;11.63;;
4806;SDS011;2417;52.482;13.432;2023-06-22T04:49:43;31.60;;;11.03;;
4806;SDS011;2417;52.482;13.432;2023-06-22T04:52:12;30.03;;;11.03;;
4806;SDS011;2417;52.482;13.432;2023-06-22T04:54:40;32.67;;;11.20;;
4806;SDS011;2417;52.482;13.432;2023-06-22T04:57:15;33.27;;;11.13;;
4806;SDS011;2417;52.482;13.432;2023-06-22T04:59:43;31.90;;;10.20;;
4806;SDS011;2417;52.482;13.432;2023-06-22T05:02:11;28.40;;;9.90;;
4806;SDS011;2417;52.482;13.432;2023-06-22T05:04:39;29.60;;;10.00;;
4806;SDS011;2417;52.482;13.432;2023-06-22T05:07:07;31.83;;;10.90;;
4806;SDS011;2417;52.482;13.432;2023-06-22T05:09:35;30.27;;;10.43;;
4806;SDS011;2417;52.482;13.432;2023-06-22T05:12:03;31.90;;;11.23;;
4806;SDS011;2417;52.482;13.432;2023-06-22T05:14:37;32.43;;;11.37;;
4806;SDS011;2417;52.482;13.432;2023-06-22T05:17:05;34.40;;;11.37;;
4806;SDS011;2417;52.482;13.432;2023-06-22T05:19:42;38.20;;;10.90;;
4806;SDS011;2417;52.482;13.432;2023-06-22T05:22:11;32.60;;;11.60;;
4806;SDS011;2417;52.482;13.432;2023-06-22T05:24:40;29.07;;;11.20;;
4806;SDS011;2417;52.482;13.432;2023-06-22T05:27:08;28.00;;;10.40;;
4806;SDS011;2417;52.482;13.432;2023-06-22T05:29:35;34.70;;;12.37;;
4806;SDS011;2417;52.482;13.432;2023-06-22T05:32:05;30.17;;;10.80;;
4806;SDS011;2417;52.482;13.432;2023-06-22T05:34:34;31.83;;;11.10;;
4806;SDS011;2417;52.482;13.432;2023-06-22T05:37:02;32.33;;;10.70;;
4806;SDS011;2417;52.482;13.432;2023-06-22T05:39:30;26.23;;;9.40;;
4806;SDS011;2417;52.482;13.432;2023-06-22T05:41:58;27.17;;;9.60;;
4806;SDS011;2417;52.482;13.432;2023-06-22T05:44:26;31.23;;;9.43;;
4806;SDS011;2417;52.482;13.432;2023-06-22T05:46:54;27.20;;;9.37;;
4806;SDS011;2417;52.482;13.432;2023-06-22T05:49:23;25.97;;;8.40;;
4806;SDS011;2417;52.482;13.432;2023-06-22T05:51:56;31.40;;;9.33;;
4806;SDS011;2417;52.482;13.432;2023-06-22T05:54:24;32.10;;;8.70;;
4806;SDS011;2417;52.482;13.432;2023-06-22T05:56:52;26.87;;;7.67;;
4806;SDS011;2417;52.482;13.432;2023-06-22T05:59:20;27.73;;;9.07;;
4806;SDS011;2417;52.482;13.432;2023-06-22T06:01:48;27.83;;;9.30;;
4806;SDS011;2417;52.482;13.432;2023-06-22T06:04:17;31.83;;;8.77;;
4806;SDS011;2417;52.482;13.432;2023-06-22T06:06:46;28.67;;;9.63;;
4806;SDS011;2417;52.482;13.432;2023-06-22T06:09:14;29.07;;;8.33;;
4806;SDS011;2417;52.482;13.432;2023-06-22T06:11:42;27.43;;;8.10;;
4806;SDS011;2417;52.482;13.432;2023-06-22T06:14:10;26.30;;;8.50;;
4806;SDS011;2417;52.482;13.432;2023-06-22T06:16:38;27.40;;;7.90;;
4806;SDS011;2417;52.482;13.432;2023-06-22T06:19:06;26.17;;;7.70;;
4806;SDS011;2417;52.482;13.432;2023-06-22T06:21:34;25.30;;;6.97;;
4806;SDS011;2417;52.482;13.432;2023-06-22T06:24:03;26.27;;;7.60;;
4806;SDS011;2417;52.482;13.432;2023-06-22T06:26:31;25.30;;;7.03;;
4806;SDS011;2417;52.482;13.432;2023-06-22T06:29:02;27.77;;;6.70;;
4806;SDS011;2417;52.482;13.432;2023-06-22T06:31:30;24.37;;;7.03;;
4806;SDS011;2417;52.482;13.432;2023-06-22T06:33:58;25.23;;;7.23;;
4806;SDS011;2417;52.482;13.432;2023-06-22T06:36:26;21.93;;;6.40;;
4806;SDS011;2417;52.482;13.432;2023-06-22T06:38:54;27.90;;;6.30;;
4806;SDS011;2417;52.482;13.432;2023-06-22T06:41:23;21.40;;;6.60;;
4806;SDS011;2417;52.482;13.432;2023-06-22T06:43:52;23.47;;;6.20;;
4806;SDS011;2417;52.482;13.432;2023-06-22T06:46:20;24.03;;;7.30;;
4806;SDS011;2417;52.482;13.432;2023-06-22T06:48:48;26.10;;;6.50;;
4806;SDS011;2417;52.482;13.432;2023-06-22T06:51:16;23.70;;;5.90;;
4806;SDS011;2417;52.482;13.432;2023-06-22T06:53:43;21.93;;;5.73;;
4806;SDS011;2417;52.482;13.432;2023-06-22T06:56:11;21.27;;;6.20;;
4806;SDS011;2417;52.482;13.432;2023-06-22T06:58:41;22.27;;;5.40;;
4806;SDS011;2417;52.482;13.432;2023-06-22T07:01:11;24.07;;;8.33;;
4806;SDS011;2417;52.482;13.432;2023-06-22T07:03:39;20.00;;;4.77;;
4806;SDS011;2417;52.482;13.432;2023-06-22T07:06:07;25.17;;;5.10;;
4806;SDS011;2417;52.482;13.432;2023-06-22T07:08:35;20.87;;;4.60;;
4806;SDS011;2417;52.482;13.432;2023-06-22T07:11:03;20.10;;;4.87;;
4806;SDS011;2417;52.482;13.432;2023-06-22T07:13:31;19.93;;;4.80;;
4806;SDS011;2417;52.482;13.432;2023-06-22T07:16:01;20.80;;;4.70;;
4806;SDS011;2417;52.482;13.432;2023-06-22T07:18:29;19.83;;;5.00;;
4806;SDS011;2417;52.482;13.432;2023-06-22T07:20:57;21.83;;;4.93;;
4806;SDS011;2417;52.482;13.432;2023-06-22T07:23:25;21.33;;;4.60;;
4806;SDS011;2417;52.482;13.432;2023-06-22T07:25:53;19.80;;;5.80;;
4806;SDS011;2417;52.482;13.432;2023-06-22T07:28:21;26.10;;;4.53;;
4806;SDS011;2417;52.482;13.432;2023-06-22T07:30:49;17.20;;;3.90;;
4806;SDS011;2417;52.482;13.432;2023-06-22T07:33:19;18.90;;;4.27;;
4806;SDS011;2417;52.482;13.432;2023-06-22T07:35:47;16.90;;;3.60;;
4806;SDS011;2417;52.482;13.432;2023-06-22T07:38:17;19.27;;;4.10;;
4806;SDS011;2417;52.482;13.432;2023-06-22T07:40:45;20.50;;;3.87;;
4806;SDS011;2417;52.482;13.432;2023-06-22T07:43:13;17.17;;;3.80;;
4806;SDS011;2417;52.482;13.432;2023-06-22T07:45:43;18.17;;;3.93;;
4806;SDS011;2417;52.482;13.432;2023-06-22T07:48:21;21.07;;;3.33;;
4806;SDS011;2417;52.482;13.432;2023-06-22T07:50:49;18.30;;;3.80;;
4806;SDS011;2417;52.482;13.432;2023-06-22T07:53:17;18.83;;;3.67;;
4806;SDS011;2417;52.482;13.432;2023-06-22T07:55:45;18.60;;;4.37;;
4806;SDS011;2417;52.482;13.432;2023-06-22T07:58:15;21.73;;;4.40;;
4806;SDS011;2417;52.482;13.432;2023-06-22T08:00:46;23.47;;;3.83;;
4806;SDS011;2417;52.482;13.432;2023-06-22T08:03:15;19.23;;;4.63;;
4806;SDS011;2417;52.482;13.432;2023-06-22T08:05:45;19.10;;;4.03;;
4806;SDS011;2417;52.482;13.432;2023-06-22T08:08:12;17.17;;;3.23;;
4806;SDS011;2417;52.482;13.432;2023-06-22T08:10:41;18.70;;;3.63;;
4806;SDS011;2417;52.482;13.432;2023-06-22T08:13:09;21.87;;;3.63;;
4806;SDS011;2417;52.482;13.432;2023-06-22T08:15:38;18.40;;;3.63;;
4806;SDS011;2417;52.482;13.432;2023-06-22T08:18:06;20.30;;;3.93;;
4806;SDS011;2417;52.482;13.432;2023-06-22T08:20:34;20.97;;;4.57;;
4806;SDS011;2417;52.482;13.432;2023-06-22T08:23:03;18.60;;;4.00;;
4806;SDS011;2417;52.482;13.432;2023-06-22T08:25:33;19.13;;;4.70;;
4806;SDS011;2417;52.482;13.432;2023-06-22T08:28:01;21.23;;;3.90;;
4806;SDS011;2417;52.482;13.432;2023-06-22T08:30:29;21.60;;;4.17;;
4806;SDS011;2417;52.482;13.432;2023-06-22T08:32:57;20.30;;;4.87;;
4806;SDS011;2417;52.482;13.432;2023-06-22T08:35:25;22.17;;;4.70;;
4806;SDS011;2417;52.482;13.432;2023-06-22T08:37:53;20.60;;;4.40;;
4806;SDS011;2417;52.482;13.432;2023-06-22T08:40:23;19.43;;;4.30;;
4806;SDS011;2417;52.482;13.432;2023-06-22T08:42:51;18.90;;;4.50;;
4806;SDS011;2417;52.482;13.432;2023-06-22T08:45:19;20.00;;;4.50;;
4806;SDS011;2417;52.482;13.432;2023-06-22T08:47:46;18.30;;;4.47;;
4806;SDS011;2417;52.482;13.432;2023-06-22T08:50:15;23.90;;;5.90;;
4806;SDS011;2417;52.482;13.432;2023-06-22T08:52:42;19.63;;;4.70;;
4806;SDS011;2417;52.482;13.432;2023-06-22T08:55:12;20.93;;;5.83;;
4806;SDS011;2417;52.482;13.432;2023-06-22T08:57:42;19.47;;;5.03;;
4806;SDS011;2417;52.482;13.432;2023-06-22T09:00:10;20.67;;;4.33;;
4806;SDS011;2417;52.482;13.432;2023-06-22T09:02:44;17.50;;;3.53;;
4806;SDS011;2417;52.482;13.432;2023-06-22T09:05:12;18.33;;;3.80;;
4806;SDS011;2417;52.482;13.432;2023-06-22T09:07:41;16.50;;;3.80;;
4806;SDS011;2417;52.482;13.432;2023-06-22T09:10:09;16.40;;;3.53;;
4806;SDS011;2417;52.482;13.432;2023-06-22T09:12:38;17.33;;;3.97;;
4806;SDS011;2417;52.482;13.432;2023-06-22T09:15:08;17.93;;;3.57;;
4806;SDS011;2417;52.482;13.432;2023-06-22T09:17:42;17.17;;;3.83;;
4806;SDS011;2417;52.482;13.432;2023-06-22T09:20:10;17.30;;;4.00;;
4806;SDS011;2417;52.482;13.432;2023-06-22T09:22:38;16.57;;;3.60;;
4806;SDS011;2417;52.482;13.432;2023-06-22T09:25:06;16.90;;;3.63;;
4806;SDS011;2417;52.482;13.432;2023-06-22T09:27:35;18.03;;;3.67;;
4806;SDS011;2417;52.482;13.432;2023-06-22T09:30:03;17.63;;;3.90;;
4806;SDS011;2417;52.482;13.432;2023-06-22T09:32:32;18.40;;;4.20;;
4806;SDS011;2417;52.482;13.432;2023-06-22T09:35:02;17.70;;;4.30;;
4806;SDS011;2417;52.482;13.432;2023-06-22T09:37:30;18.13;;;4.00;;
4806;SDS011;2417;52.482;13.432;2023-06-22T09:39:58;18.17;;;4.70;;
4806;SDS011;2417;52.482;13.432;2023-06-22T09:42:26;20.20;;;4.37;;
4806;SDS011;2417;52.482;13.432;2023-06-22T09:44:54;17.27;;;4.07;;
4806;SDS011;2417;52.482;13.432;2023-06-22T09:47:22;19.03;;;4.10;;
4806;SDS011;2417;52.482;13.432;2023-06-22T09:49:51;20.70;;;4.60;;
4806;SDS011;2417;52.482;13.432;2023-06-22T09:52:20;19.53;;;4.20;;
4806;SDS011;2417;52.482;13.432;2023-06-22T09:54:56;21.23;;;3.80;;
4806;SDS011;2417;52.482;13.432;2023-06-22T09:57:24;17.70;;;4.10;;
4806;SDS011;2417;52.482;13.432;2023-06-22T09:59:52;19.17;;;3.70;;
4806;SDS011;2417;52.482;13.432;2023-06-22T10:02:20;17.70;;;3.97;;
4806;SDS011;2417;52.482;13.432;2023-06-22T10:04:49;17.17;;;4.33;;
4806;SDS011;2417;52.482;13.432;2023-06-22T10:07:18;17.40;;;4.70;;
4806;SDS011;2417;52.482;13.432;2023-06-22T10:09:46;19.93;;;5.47;;
4806;SDS011;2417;52.482;13.432;2023-06-22T10:12:14;20.90;;;5.73;;
4806;SDS011;2417;52.482;13.432;2023-06-22T10:14:42;18.77;;;5.20;;
4806;SDS011;2417;52.482;13.432;2023-06-22T10:17:11;17.07;;;4.37;;
4806;SDS011;2417;52.482;13.432;2023-06-22T10:19:38;16.70;;;3.90;;
4806;SDS011;2417;52.482;13.432;2023-06-22T10:22:08;18.90;;;5.27;;
4806;SDS011;2417;52.482;13.432;2023-06-22T10:24:37;18.63;;;3.73;;
4806;SDS011;2417;52.482;13.432;2023-06-22T10:27:10;15.10;;;4.03;;
4806;SDS011;2417;52.482;13.432;2023-06-22T10:29:40;20.80;;;4.17;;
4806;SDS011;2417;52.482;13.432;2023-06-22T10:32:09;16.90;;;4.00;;
4806;SDS011;2417;52.482;13.432;2023-06-22T10:34:37;19.97;;;3.77;;
4806;SDS011;2417;52.482;13.432;2023-06-22T10:37:05;14.80;;;3.73;;
4806;SDS011;2417;52.482;13.432;2023-06-22T10:39:33;14.30;;;3.30;;
4806;SDS011;2417;52.482;13.432;2023-06-22T10:42:02;17.83;;;3.83;;
4806;SDS011;2417;52.482;13.432;2023-06-22T10:44:31;15.57;;;3.60;;
4806;SDS011;2417;52.482;13.432;2023-06-22T10:46:59;14.57;;;3.57;;
4806;SDS011;2417;52.482;13.432;2023-06-22T10:49:27;14.60;;;3.43;;
4806;SDS011;2417;52.482;13.432;2023-06-22T10:51:54;16.40;;;4.07;;
4806;SDS011;2417;52.482;13.432;2023-06-22T10:54:22;17.40;;;4.70;;
4806;SDS011;2417;52.482;13.432;2023-06-22T10:56:50;14.70;;;3.30;;
4806;SDS011;2417;52.482;13.432;2023-06-22T10:59:19;15.83;;;4.20;;
4806;SDS011;2417;52.482;13.432;2023-06-22T11:01:48;14.93;;;3.47;;
4806;SDS011;2417;52.482;13.432;2023-06-22T11:04:15;14.90;;;4.23;;
4806;SDS011;2417;52.482;13.432;2023-06-22T11:06:44;13.40;;;3.00;;
4806;SDS011;2417;52.482;13.432;2023-06-22T11:09:12;14.60;;;3.73;;
4806;SDS011;2417;52.482;13.432;2023-06-22T11:11:49;13.30;;;3.53;;
4806;SDS011;2417;52.482;13.432;2023-06-22T11:14:17;14.43;;;3.80;;
4806;SDS011;2417;52.482;13.432;2023-06-22T11:16:46;15.20;;;3.90;;
4806;SDS011;2417;52.482;13.432;2023-06-22T11:19:15;14.20;;;3.53;;
4806;SDS011;2417;52.482;13.432;2023-06-22T11:21:43;16.77;;;3.70;;
4806;SDS011;2417;52.482;13.432;2023-06-22T11:24:11;14.20;;;3.60;;
4806;SDS011;2417;52.482;13.432;2023-06-22T11:26:39;15.80;;;3.97;;
4806;SDS011;2417;52.482;13.432;2023-06-22T11:29:07;15.03;;;4.20;;
4806;SDS011;2417;52.482;13.432;2023-06-22T11:31:39;14.77;;;3.80;;
4806;SDS011;2417;52.482;13.432;2023-06-22T11:34:11;14.10;;;3.83;;
4806;SDS011;2417;52.482;13.432;2023-06-22T11:36:39;15.27;;;3.50;;
4806;SDS011;2417;52.482;13.432;2023-06-22T11:39:07;18.00;;;5.10;;
4806;SDS011;2417;52.482;13.432;2023-06-22T11:41:36;21.53;;;5.00;;
4806;SDS011;2417;52.482;13.432;2023-06-22T11:44:04;17.10;;;4.40;;
4806;SDS011;2417;52.482;13.432;2023-06-22T11:46:32;16.60;;;3.70;;
4806;SDS011;2417;52.482;13.432;2023-06-22T11:49:01;14.80;;;3.90;;
4806;SDS011;2417;52.482;13.432;2023-06-22T11:51:30;17.27;;;3.70;;
4806;SDS011;2417;52.482;13.432;2023-06-22T11:53:59;14.10;;;3.00;;
4806;SDS011;2417;52.482;13.432;2023-06-22T11:56:28;14.40;;;4.10;;
4806;SDS011;2417;52.482;13.432;2023-06-22T11:58:56;15.93;;;4.00;;
4806;SDS011;2417;52.482;13.432;2023-06-22T12:01:24;15.00;;;3.60;;
4806;SDS011;2417;52.482;13.432;2023-06-22T12:03:53;14.73;;;4.47;;
4806;SDS011;2417;52.482;13.432;2023-06-22T12:06:21;12.90;;;3.23;;
4806;SDS011;2417;52.482;13.432;2023-06-22T12:08:51;17.33;;;5.20;;
4806;SDS011;2417;52.482;13.432;2023-06-22T12:11:19;12.93;;;3.27;;
4806;SDS011;2417;52.482;13.432;2023-06-22T12:13:47;12.97;;;3.40;;
4806;SDS011;2417;52.482;13.432;2023-06-22T12:16:15;11.83;;;3.00;;
4806;SDS011;2417;52.482;13.432;2023-06-22T12:18:43;14.33;;;4.10;;
4806;SDS011;2417;52.482;13.432;2023-06-22T12:21:11;12.80;;;3.20;;
4806;SDS011;2417;52.482;13.432;2023-06-22T12:23:39;17.43;;;7.00;;
4806;SDS011;2417;52.482;13.432;2023-06-22T12:26:09;14.60;;;4.27;;
4806;SDS011;2417;52.482;13.432;2023-06-22T12:28:36;31.30;;;12.40;;
4806;SDS011;2417;52.482;13.432;2023-06-22T12:31:04;34.73;;;13.43;;
4806;SDS011;2417;52.482;13.432;2023-06-22T12:33:33;14.97;;;4.40;;
4806;SDS011;2417;52.482;13.432;2023-06-22T12:36:02;15.20;;;4.07;;
4806;SDS011;2417;52.482;13.432;2023-06-22T12:38:31;18.40;;;5.77;;
4806;SDS011;2417;52.482;13.432;2023-06-22T12:40:59;17.87;;;5.10;;
4806;SDS011;2417;52.482;13.432;2023-06-22T12:43:28;16.23;;;4.80;;
4806;SDS011;2417;52.482;13.432;2023-06-22T12:45:56;25.00;;;9.47;;
4806;SDS011;2417;52.482;13.432;2023-06-22T12:48:25;18.10;;;5.90;;
4806;SDS011;2417;52.482;13.432;2023-06-22T12:50:53;16.77;;;5.30;;
4806;SDS011;2417;52.482;13.432;2023-06-22T12:53:21;16.30;;;4.50;;
4806;SDS011;2417;52.482;13.432;2023-06-22T12:55:50;17.40;;;5.40;;
4806;SDS011;2417;52.482;13.432;2023-06-22T12:58:18;22.50;;;5.03;;
4806;SDS011;2417;52.482;13.432;2023-06-22T13:00:48;20.40;;;6.57;;
4806;SDS011;2417;52.482;13.432;2023-06-22T13:03:16;20.70;;;6.30;;
4806;SDS011;2417;52.482;13.432;2023-06-22T13:05:44;43.07;;;15.27;;
4806;SDS011;2417;52.482;13.432;2023-06-22T13:08:12;15.60;;;4.17;;
4806;SDS011;2417;52.482;13.432;2023-06-22T13:10:40;17.13;;;5.70;;
4806;SDS011;2417;52.482;13.432;2023-06-22T13:13:08;15.87;;;4.77;;
4806;SDS011;2417;52.482;13.432;2023-06-22T13:15:37;17.53;;;4.70;;
4806;SDS011;2417;52.482;13.432;2023-06-22T13:18:07;17.50;;;4.60;;
4806;SDS011;2417;52.482;13.432;2023-06-22T13:20:35;16.73;;;4.10;;
4806;SDS011;2417;52.482;13.432;2023-06-22T13:23:03;16.20;;;5.40;;
4806;SDS011;2417;52.482;13.432;2023-06-22T13:25:31;17.23;;;4.80;;
4806;SDS011;2417;52.482;13.432;2023-06-22T13:27:59;15.60;;;4.90;;
4806;SDS011;2417;52.482;13.432;2023-06-22T13:30:30;17.10;;;4.90;;
4806;SDS011;2417;52.482;13.432;2023-06-22T13:32:59;20.63;;;5.03;;
4806;SDS011;2417;52.482;13.432;2023-06-22T13:35:32;17.27;;;5.70;;
4806;SDS011;2417;52.482;13.432;2023-06-22T13:38:01;15.43;;;4.50;;
4806;SDS011;2417;52.482;13.432;2023-06-22T13:40:29;15.40;;;5.00;;
4806;SDS011;2417;52.482;13.432;2023-06-22T13:42:57;23.90;;;5.40;;
4806;SDS011;2417;52.482;13.432;2023-06-22T13:45:25;16.17;;;4.90;;
4806;SDS011;2417;52.482;13.432;2023-06-22T13:47:53;16.70;;;5.40;;
4806;SDS011;2417;52.482;13.432;2023-06-22T13:50:21;15.20;;;4.50;;
4806;SDS011;2417;52.482;13.432;2023-06-22T13:52:50;21.43;;;6.30;;
4806;SDS011;2417;52.482;13.432;2023-06-22T13:55:18;20.47;;;5.53;;
4806;SDS011;2417;52.482;13.432;2023-06-22T13:57:47;17.50;;;5.20;;
4806;SDS011;2417;52.482;13.432;2023-06-22T14:00:15;15.60;;;4.73;;
4806;SDS011;2417;52.482;13.432;2023-06-22T14:02:43;15.90;;;4.93;;
4806;SDS011;2417;52.482;13.432;2023-06-22T14:05:11;18.97;;;5.43;;
4806;SDS011;2417;52.482;13.432;2023-06-22T14:07:40;16.07;;;4.77;;
4806;SDS011;2417;52.482;13.432;2023-06-22T14:10:09;17.50;;;5.10;;
4806;SDS011;2417;52.482;13.432;2023-06-22T14:12:38;16.10;;;5.13;;
4806;SDS011;2417;52.482;13.432;2023-06-22T14:15:06;19.83;;;5.07;;
4806;SDS011;2417;52.482;13.432;2023-06-22T14:17:34;16.60;;;5.10;;
4806;SDS011;2417;52.482;13.432;2023-06-22T14:20:03;17.27;;;5.03;;
4806;SDS011;2417;52.482;13.432;2023-06-22T14:22:32;16.30;;;4.80;;
4806;SDS011;2417;52.482;13.432;2023-06-22T14:25:01;16.50;;;4.23;;
4806;SDS011;2417;52.482;13.432;2023-06-22T14:27:32;16.80;;;5.27;;
4806;SDS011;2417;52.482;13.432;2023-06-22T14:30:22;17.17;;;4.93;;
4806;SDS011;2417;52.482;13.432;2023-06-22T14:32:50;21.20;;;4.83;;
4806;SDS011;2417;52.482;13.432;2023-06-22T14:35:18;16.60;;;5.00;;
4806;SDS011;2417;52.482;13.432;2023-06-22T14:37:47;16.13;;;5.20;;
4806;SDS011;2417;52.482;13.432;2023-06-22T14:40:16;18.23;;;4.93;;
4806;SDS011;2417;52.482;13.432;2023-06-22T14:42:45;17.80;;;4.90;;
4806;SDS011;2417;52.482;13.432;2023-06-22T14:45:13;18.47;;;5.03;;
4806;SDS011;2417;52.482;13.432;2023-06-22T14:47:41;15.87;;;4.53;;
4806;SDS011;2417;52.482;13.432;2023-06-22T14:50:09;16.07;;;4.70;;
4806;SDS011;2417;52.482;13.432;2023-06-22T14:52:37;17.63;;;5.07;;
4806;SDS011;2417;52.482;13.432;2023-06-22T14:55:05;21.50;;;5.57;;